Airfield :
LOGIN :

Register | Disclaimer

   EN    FR    IT 

 










Legend :    VFR   Marginal VFR   IFR   Intensive IFR   Very Intensive IFR
Visi :
Ceiling :
>= 8 km
>= 3000ft
5 to 8 km
1000 to 3000 ft
1500m to 5 km
500 to 1000 ft
800 to 1500m
200 to 500 ft
< 800m
< 200 ft
Symbols :   Thunderstorms  Fog  Heavy snow  Heavy precipitations  Wind > 20 kt
SIGMETs :     Misc.  Thunderstorms  Icing  Turbulence  Mountain Waves  Volcanic Ashes






- Airport Elevation : 330 ft
- IATA code : LVA


LFOV - Laval-Entrammes

CURRENT METAR :
  • 202130Z AUTO 01003KT CAVOK 18/15 Q1008

EXPIRED METARs :
  • 202100Z AUTO 35007KT 310V010 9999 FEW010 SCT150 BKN240 19/17 Q1007
  • 202030Z AUTO 31005KT 280V350 CAVOK 20/17 Q1008
  • 202000Z AUTO 27007KT 9999 ///CB 21/17 Q1008
  • 201930Z AUTO 26007KT 9999 ///TCU 22/17 Q1008
  • 201900Z AUTO 26009KT 220V280 9999 FEW030 22/16 Q1007
  • 201830Z AUTO 25010KT 220V280 CAVOK 23/16 Q1007
  • 201800Z AUTO 23009KT 200V260 CAVOK 24/16 Q1007
  • 201730Z AUTO 25008KT 220V280 9999 FEW041 BKN054 24/17 Q1007
  • 201700Z AUTO 25009KT 210V280 9999 SCT038 BKN047 BKN056 25/17 Q1007

TAF N/A



MET'MAP, your aeronautical weather chart ! - Copyright ORBIFLY December 2007 - Disclaimer

ORBIFLY MET'MAP TEAM :

Programming & Development : Alexandra Zaïnal
Original concept : Baudouin d'Aumeries
Technical & hardware support : Manuel Goepfert
Assistance : Marc-Olivier Méhu




SOURCES & CREDITS :

   NOAA